Historyczne dane pomiarowe

Dodano dane terminowe – wersja testowa.

Dane z okresu 1951-2019

Wersja bazy: 1.34 [2019-03-16, lista zmian], aktualizacja planowana na 2019-04-15

Dane meteo z obszaru Polski uzyskane na podstawie danych udostępnionych przez Instytut Meteorologii i Gospodarki Wodnej – Państwowy Instytut Badawczy.

 

Wybierz Datę:    

       

TemperaturaWilgotnośćWiatrCiśnienieOpadyŚniegCzas trwania zjawisk
 Stacja t tx tn tng RH VA  wxwx mslp ppp RRR   cm mm wxwxwxwxwxwxwx
1994-08-14 14.4 19.3 10.0- 68.5- 4.3 2.7---- 0.0------------
1994-08-13 16.2 20.3 13.0- 82.3- 4.3 3.3---- 0.4------------
1994-08-12 14.2 20.0 10.6- 96.0- 7.7 2.7---- 5.2------------
1994-08-11 17.1 24.1 12.2- 90.8- 5.7 2.7---- 5.8------------
1994-08-10 17.1 27.7 8.1- 80.3- 4.3 0.3---- 0.9------------
1994-08-09 17.0 22.3 12.9- 93.3- 6.3 1.7---- 2.2------------
1994-08-08 20.3 29.5 13.2- 79.0- 6.3 2.7---- 0.0------------
1994-08-07 19.9 28.7 15.4- 78.8- 5.7 0.7---- 0.0------------
1994-08-06 19.1 30.1 8.7- 75.0- 3.0 1.7---- 0.1------------
1994-08-05 19.3 28.7 9.7- 76.5- 1.7 1.0---- 0.0------------
1994-08-04 20.1 27.1 14.2- 80.5- 3.3 1.3---- 0.0------------
1994-08-03 19.4 28.4 11.4- 86.3- 4.7 2.7---- 5.2------------
1994-08-02 20.3 30.4 10.0- 78.3- 5.0 0.3---- 0.0------------
1994-08-01 20.6 33.1 10.9- 75.3- 5.7 1.0---- 0.4------------
1994-07-31 21.4 31.7 8.9- 71.0- 1.7 0.0---- 0.0------------
1994-07-30 20.3 32.2 7.5- 68.8- 0.7 0.3---- 0.0------------
1994-07-29 19.3 31.4 6.4- 66.0- 1.3 0.0---- 0.0------------
1994-07-28 19.5 30.4 7.5- 68.8- 3.3 1.3---- 0.0------------
1994-07-27 20.4 30.1 8.1- 70.8- 2.0 1.3---- 0.0------------
1994-07-26 20.4 29.5 10.1- 70.3- 1.7 0.3---- 0.0------------
1994-07-25 18.6 30.0 7.2- 73.3- 2.3 1.3---- 0.0------------
1994-07-24 18.4 28.0 7.9- 70.3- 1.3 1.3---- 0.0------------
1994-07-23 16.6 26.6 4.2- 73.5- 1.3 1.7---- 0.0------------
1994-07-22 16.5 25.6 4.0- 73.8- 1.0 0.7---- 0.0------------
1994-07-21 15.1 24.1 3.4- 76.8- 0.0 0.3---- 0.0------------
1994-07-20 16.7 21.9 9.4- 73.5- 3.0 0.7---- 0.0------------
1994-07-19 18.5 24.8 12.9- 82.5- 5.0 2.7---- 0.0------------
1994-07-18 19.5 25.1 15.0- 84.0- 5.7 0.3---- 0.8------------
1994-07-17 18.9 26.7 13.2- 84.3- 6.0 0.0---- 6.2------------
1994-07-16 17.2 27.2 8.7- 86.0- 4.3 0.0---- 1.5------------
1994-07-15 17.0 24.1 10.0- 78.0- 6.0 1.7---- 0.0------------
1994-07-14 14.2 26.6 7.9- 85.0- 5.3 2.0---- 33.1------------
1994-07-13 17.2 25.6 6.4- 77.3- 3.3 2.3---- 0.0------------
1994-07-12 17.6 23.0 12.2- 79.8- 4.7 1.7---- 0.0------------
1994-07-11 15.6 21.5 8.4- 87.5- 4.7 2.0---- 0.1------------
1994-07-10 13.4 17.3 10.7- 92.5- 7.3 1.0---- 2.5------------
1994-07-09 12.6 19.0 7.9- 85.8- 7.7 3.7---- 3.7------------
1994-07-08 15.2 19.6 11.2- 75.5- 4.7 5.3---- 0.0------------
1994-07-07 14.2 24.0 6.0- 87.5- 7.0 0.7---- 2.3------------
1994-07-06 17.2 23.5 9.9- 70.3- 2.3 1.3---- 0.0------------
1994-07-05 16.4 24.3 8.4- 80.5- 6.3 1.0---- 0.0------------
1994-07-04 17.5 27.6 5.0- 72.5- 1.3 0.7---- 0.0------------
1994-07-03 16.9 27.6 4.2- 72.3- 0.7 0.0---- 0.0------------
1994-07-02 16.0 24.6 5.4- 74.3- 0.7 0.3---- 0.0------------
1994-07-01 18.4 22.6 15.0- 75.8- 4.7 0.7---- 0.0------------
1994-06-30 18.5 28.4 13.0- 93.3- 6.3 0.7---- 32.1------------
1994-06-29 20.6 30.1 11.8- 80.8- 6.0 0.0---- 0.0------------
1994-06-28 21.4 29.9 11.7- 84.0- 4.3 0.0---- 0.0------------
1994-06-27 20.4 31.6 10.8- 75.0- 3.7 0.3---- 0.0------------
1994-06-26 17.3 27.9 2.3- 73.8- 1.7 0.7---- 0.0------------
1994-06-25 13.3 24.8 -1.6- 62.8- 0.3 0.0---- 0.0------------
1994-06-24 12.3 19.7 1.0- 66.8- 0.3 1.3---- 0.0------------
1994-06-23 15.8 20.7 14.0- 72.0- 6.7 2.7---- 0.0------------
1994-06-22 15.2 25.5 3.2- 79.3- 3.3 0.3---- 0.0------------
1994-06-21 13.9 19.7 4.8- 72.0- 2.0 1.7---- 0.0------------
1994-06-20 13.9 21.4 5.0- 81.0- 5.3 1.7---- 0.0------------
1994-06-19 16.1 23.2 8.5- 76.8- 3.3 4.0---- 0.2------------
1994-06-18 10.4 18.0 2.2- 85.0- 6.0 3.3---- 8.2------------
1994-06-17 9.5 12.9 6.8- 82.0- 7.0 1.7---- 0.0------------
1994-06-16 10.2 16.1 0.4- 77.3- 4.0 3.0---- 1.7------------
1425.1 ms

 

Źródłem pochodzenia danych jest Instytut Meteorologii i Gospodarki Wodnej – Państwowy Instytut Badawczy. Dane Instytutu Meteorologii i Gospodarki Wodnej – Państwowego Instytutu Badawczego zostały przetworzone.

Dane źródłowe można odnaleźć na stronie https://dane.imgw.pl